createdAt,value
2023-03-02T00:00:57.039Z,77.69
2023-03-02T00:01:58.813Z,77.58
2023-03-02T00:03:00.556Z,77.68
2023-03-02T00:04:02.311Z,77.83
2023-03-02T00:05:03.963Z,77.66
2023-03-02T00:06:05.688Z,77.97
2023-03-02T00:07:07.460Z,77.68
2023-03-02T00:08:09.168Z,77.75
2023-03-02T00:09:10.892Z,78.19
2023-03-02T00:10:12.638Z,78.47
2023-03-02T00:11:14.372Z,78.09
2023-03-02T00:12:16.117Z,78.3
2023-03-02T00:13:17.855Z,78.38
2023-03-02T00:14:19.594Z,78.51
2023-03-02T00:15:21.320Z,78.49
2023-03-02T00:16:23.135Z,78.59
2023-03-02T00:17:24.771Z,78.77
2023-03-02T00:18:26.635Z,78.52
2023-03-02T00:19:28.248Z,78.66
2023-03-02T00:20:30.006Z,78.43
2023-03-02T00:21:31.720Z,78.6
2023-03-02T00:22:33.420Z,78.6
2023-03-02T00:23:35.183Z,78.93
2023-03-02T00:24:36.909Z,78.62
2023-03-02T00:25:38.621Z,78.6
2023-03-02T00:26:40.383Z,78.46
2023-03-02T00:27:42.092Z,78.59
2023-03-02T00:28:43.849Z,78.59
2023-03-02T00:29:45.594Z,78.68
2023-03-02T00:30:47.294Z,78.66
2023-03-02T00:31:49.063Z,78.77
2023-03-02T00:32:50.775Z,78.86
2023-03-02T00:33:52.507Z,78.69
2023-03-02T00:34:54.208Z,78.74
2023-03-02T00:35:56.032Z,78.71
2023-03-02T00:36:57.703Z,78.62
2023-03-02T00:37:59.427Z,78.65
2023-03-02T00:39:01.186Z,78.66
2023-03-02T00:40:02.888Z,78.83
2023-03-02T00:41:04.629Z,78.79
2023-03-02T00:42:06.364Z,78.67
2023-03-02T00:43:08.093Z,78.82
2023-03-02T00:44:09.861Z,78.9
2023-03-02T00:45:11.549Z,78.97
2023-03-02T00:46:13.321Z,78.88
2023-03-02T00:47:15.038Z,79.02
2023-03-02T00:48:16.769Z,78.67
2023-03-02T00:49:18.544Z,78.95
2023-03-02T00:50:20.220Z,78.56
2023-03-02T00:51:21.988Z,78.79
2023-03-02T00:52:23.703Z,79.04
2023-03-02T00:53:25.428Z,79.03
2023-03-02T00:54:27.167Z,79.22
2023-03-02T00:55:28.906Z,79.36
2023-03-02T00:56:30.981Z,79.21
2023-03-02T00:57:32.466Z,79.4
2023-03-02T00:58:34.120Z,79.03
2023-03-02T00:59:35.822Z,79.12
2023-03-02T01:00:37.573Z,79.54
2023-03-02T01:03:49.703Z,79.38
2023-03-02T01:04:52.803Z,79.81
2023-03-02T01:05:53.231Z,79.68
2023-03-02T01:06:54.937Z,79.37
2023-03-02T01:07:56.692Z,79.97
2023-03-02T01:08:58.400Z,79.53
2023-03-02T01:10:00.132Z,79.54
2023-03-02T01:11:01.831Z,79.74
2023-03-02T01:12:03.576Z,79.87
2023-03-02T01:13:05.293Z,80.04
2023-03-02T01:14:07.001Z,80
2023-03-02T01:15:08.719Z,79.89
2023-03-02T01:16:10.472Z,80.14
2023-03-02T01:17:12.156Z,80.29
2023-03-02T01:18:13.876Z,80.25
2023-03-02T01:19:15.656Z,80.17
2023-03-02T01:20:17.326Z,80.05
2023-03-02T01:21:19.074Z,79.94
2023-03-02T01:22:22.168Z,79.96
2023-03-02T01:23:22.501Z,80.06
2023-03-02T01:24:24.226Z,80.21
2023-03-02T01:25:25.973Z,80.01
2023-03-02T01:26:27.674Z,80.14
2023-03-02T01:27:29.385Z,80.32
2023-03-02T01:28:31.112Z,80.37
2023-03-02T01:29:32.857Z,80.54
2023-03-02T01:30:36.099Z,80.46
2023-03-02T01:31:36.508Z,80.38
2023-03-02T01:32:38.133Z,80.34
2023-03-02T01:33:39.748Z,80.45
2023-03-02T01:34:41.464Z,80.52
2023-03-02T01:35:43.240Z,80.71
2023-03-02T01:36:44.908Z,80.66
2023-03-02T01:37:46.645Z,80.52
2023-03-02T01:38:48.383Z,80.37
2023-03-02T01:39:50.078Z,80.27
2023-03-02T01:40:51.793Z,80.54
2023-03-02T01:41:53.538Z,80.47
2023-03-02T01:42:55.264Z,80.52
2023-03-02T01:43:56.963Z,80.88
2023-03-02T01:44:58.687Z,80.47
2023-03-02T01:46:00.508Z,80.54
2023-03-02T01:47:02.181Z,80.64
2023-03-02T01:48:03.898Z,80.73
2023-03-02T01:49:05.626Z,80.91
2023-03-02T01:50:07.357Z,80.77
2023-03-02T01:51:09.086Z,80.66
2023-03-02T01:52:10.861Z,80.74
2023-03-02T01:53:12.572Z,81.08
2023-03-02T01:54:14.290Z,81.28
2023-03-02T01:55:16.033Z,81.18
2023-03-02T01:56:17.753Z,81.22
2023-03-02T01:57:19.501Z,81.29
2023-03-02T01:58:21.231Z,81.25
2023-03-02T01:59:22.959Z,81.39
2023-03-02T02:00:24.715Z,81.56
2023-03-02T02:01:26.507Z,81.52
2023-03-02T02:02:28.186Z,81.75
2023-03-02T02:03:29.902Z,82.14
2023-03-02T02:04:31.665Z,81.63
2023-03-02T02:05:33.363Z,81.86
2023-03-02T02:06:35.292Z,81.99
2023-03-02T02:07:36.854Z,82.04
2023-03-02T02:08:38.579Z,82.15
2023-03-02T02:09:40.314Z,82.13
2023-03-02T02:10:42.046Z,82.11
2023-03-02T02:11:43.795Z,82.39
2023-03-02T02:12:45.511Z,82.28
2023-03-02T02:13:47.250Z,82.4
2023-03-02T02:14:48.982Z,82.26
2023-03-02T02:15:50.712Z,82.57
2023-03-02T02:16:52.577Z,82.54
2023-03-02T02:17:54.171Z,82.82
2023-03-02T02:18:55.914Z,82.86
2023-03-02T02:19:57.647Z,83
2023-03-02T02:20:59.399Z,82.93
2023-03-02T02:22:01.119Z,82.91
2023-03-02T02:23:02.854Z,83.09
2023-03-02T02:24:04.572Z,83.3
2023-03-02T02:25:06.321Z,83.55
2023-03-02T02:26:08.062Z,83.38
2023-03-02T02:27:09.797Z,83.08
2023-03-02T02:28:11.525Z,83.73
2023-03-02T02:29:13.237Z,83.58
2023-03-02T02:30:15.008Z,83.74
2023-03-02T02:31:16.823Z,83.52
2023-03-02T02:32:18.575Z,83.25
2023-03-02T02:33:20.336Z,83.63
2023-03-02T02:34:21.929Z,83.55
2023-03-02T02:35:23.679Z,83.67
2023-03-02T02:36:25.479Z,83.43
2023-03-02T02:37:27.233Z,84.17
2023-03-02T02:38:28.847Z,83.79
2023-03-02T02:39:30.594Z,84.07
2023-03-02T02:40:34.815Z,83.92
2023-03-02T02:41:39.240Z,83.88
2023-03-02T02:42:40.953Z,84.13
2023-03-02T02:43:42.711Z,83.88
2023-03-02T02:44:44.419Z,83.98
2023-03-02T02:45:46.234Z,84.35
2023-03-02T02:46:47.912Z,84.08
2023-03-02T02:47:49.716Z,84.05
2023-03-02T02:48:51.365Z,84.28
2023-03-02T02:49:53.089Z,84.11
2023-03-02T02:50:54.819Z,84.23
2023-03-02T02:51:59.615Z,84.02
2023-03-02T02:53:08.566Z,84.31
2023-03-02T02:54:11.515Z,84.35
2023-03-02T02:55:12.935Z,84.23
2023-03-02T02:56:14.644Z,84.28
2023-03-02T02:57:28.355Z,84.37
2023-03-02T02:58:30.075Z,84.42
2023-03-02T02:59:31.838Z,84.73
2023-03-02T03:00:32.484Z,84.82
2023-03-02T03:01:33.291Z,85.23
2023-03-02T03:02:34.740Z,85.23
2023-03-02T03:03:41.964Z,85.75
2023-03-02T03:04:42.697Z,85.31
2023-03-02T03:05:47.060Z,85.23
2023-03-02T03:07:01.241Z,85.58
2023-03-02T03:08:07.401Z,86
2023-03-02T03:09:12.305Z,85.6
2023-03-02T03:10:50.647Z,86.11
2023-03-02T03:11:52.301Z,85.81
2023-03-02T03:12:54.014Z,86.08
2023-03-02T03:13:55.715Z,86.14
2023-03-02T03:14:57.454Z,85.96
2023-03-02T03:15:59.189Z,85.85
2023-03-02T03:17:01.055Z,86.34
2023-03-02T03:18:02.645Z,86.06
2023-03-02T03:19:04.369Z,85.77
2023-03-02T03:20:06.443Z,86.12
2023-03-02T03:21:07.858Z,86.5
2023-03-02T03:22:09.592Z,86.27
2023-03-02T03:23:11.322Z,86.32
2023-03-02T03:24:13.064Z,86.44
2023-03-02T03:25:14.792Z,87.01
2023-03-02T03:26:16.518Z,86.95
2023-03-02T03:27:18.267Z,87.32
2023-03-02T03:28:19.994Z,87.28
2023-03-02T03:29:21.722Z,87.15
2023-03-02T03:30:23.478Z,87.62
2023-03-02T03:31:25.224Z,87.76
2023-03-02T03:32:27.047Z,87.73
2023-03-02T03:33:28.695Z,87.73
2023-03-02T03:34:30.412Z,88.02
2023-03-02T03:35:32.177Z,88
2023-03-02T03:36:34.321Z,88.06
2023-03-02T03:37:35.618Z,87.86
2023-03-02T03:38:37.336Z,87.79
2023-03-02T03:39:39.118Z,87.77
2023-03-02T03:40:40.813Z,87.91
2023-03-02T03:41:42.544Z,88.45
2023-03-02T03:42:44.334Z,88.23
2023-03-02T03:43:45.987Z,87.91
2023-03-02T03:44:47.728Z,88.17
2023-03-02T03:45:49.556Z,88.08
2023-03-02T03:46:51.245Z,88.47
2023-03-02T03:47:52.950Z,88.13
2023-03-02T03:48:54.675Z,88.31
2023-03-02T03:49:56.450Z,88.57
2023-03-02T03:50:58.208Z,88.45
2023-03-02T03:51:59.890Z,88.84
2023-03-02T03:53:03.753Z,88.57
2023-03-02T03:54:03.337Z,88.95
2023-03-02T03:55:05.072Z,88.76
2023-03-02T03:56:06.791Z,88.95
2023-03-02T03:57:08.552Z,88.96
2023-03-02T03:58:10.439Z,89.06
2023-03-02T03:59:11.997Z,89.38
2023-03-02T04:00:13.784Z,89.06
2023-03-02T04:01:15.553Z,89.34
2023-03-02T04:02:17.282Z,89.52
2023-03-02T04:03:18.929Z,89.27
2023-03-02T04:04:20.682Z,89.19
2023-03-02T04:05:22.413Z,89
2023-03-02T04:06:24.128Z,90.06
2023-03-02T04:07:25.882Z,89.59
2023-03-02T04:08:27.616Z,89.85
2023-03-02T04:09:29.396Z,90.08
2023-03-02T04:10:31.073Z,89.92
2023-03-02T04:11:32.831Z,89.88
2023-03-02T04:12:34.579Z,89.94
2023-03-02T04:13:36.269Z,90.07
2023-03-02T04:14:37.985Z,90.07
2023-03-02T04:15:39.790Z,90.19
2023-03-02T04:16:41.472Z,90.25
2023-03-02T04:17:43.185Z,90.1
2023-03-02T04:18:44.927Z,90.58
2023-03-02T04:19:46.667Z,90.25
2023-03-02T04:20:48.392Z,90.41
2023-03-02T04:21:50.131Z,90.4
2023-03-02T04:22:51.881Z,90.06
2023-03-02T04:23:53.604Z,90.11
2023-03-02T04:24:55.353Z,89.86
2023-03-02T04:25:57.141Z,90.66
2023-03-02T04:26:58.981Z,90.4
2023-03-02T04:28:00.521Z,90.43
2023-03-02T04:29:02.353Z,90.29
2023-03-02T04:30:04.001Z,90.22
2023-03-02T04:31:05.771Z,90.2
2023-03-02T04:32:07.517Z,90.13
2023-03-02T04:33:09.209Z,90.37
2023-03-02T04:34:11.041Z,90.35
2023-03-02T04:35:12.680Z,90.51
2023-03-02T04:36:14.414Z,90.51
2023-03-02T04:37:16.200Z,90.97
2023-03-02T04:38:17.869Z,90.62
2023-03-02T04:39:19.684Z,90.61
2023-03-02T04:40:21.334Z,90.82
2023-03-02T04:41:23.090Z,90.67
2023-03-02T04:42:24.810Z,90.56
2023-03-02T04:43:26.557Z,90.81
2023-03-02T04:44:28.299Z,90.64
2023-03-02T04:45:30.059Z,91.01
2023-03-02T04:46:32.197Z,90.85
2023-03-02T04:47:33.453Z,91.11
2023-03-02T04:48:35.201Z,90.93
2023-03-02T04:49:36.934Z,91.16
2023-03-02T04:50:38.645Z,91.34
2023-03-02T04:51:40.409Z,91.21
2023-03-02T04:52:42.141Z,91.46
2023-03-02T04:53:43.984Z,91.08
2023-03-02T04:54:45.710Z,91.54
2023-03-02T04:55:47.334Z,90.97
2023-03-02T04:56:49.083Z,91.3
2023-03-02T04:57:50.786Z,91.51
2023-03-02T04:58:52.540Z,91.63
2023-03-02T04:59:54.273Z,91.51
2023-03-02T05:00:56.003Z,91.48
2023-03-02T05:01:57.802Z,91.41
2023-03-02T05:02:59.463Z,91.52
2023-03-02T05:04:02.924Z,91.38
2023-03-02T05:05:02.929Z,91.18
2023-03-02T05:06:04.666Z,91.43
2023-03-02T05:07:06.398Z,91.57
2023-03-02T05:08:08.112Z,91.59
2023-03-02T05:09:09.919Z,91.57
2023-03-02T05:10:11.603Z,91.88
2023-03-02T05:11:13.309Z,91.88
2023-03-02T05:12:15.099Z,91.85
2023-03-02T05:13:16.845Z,91.5
2023-03-02T05:14:18.596Z,91.98
2023-03-02T05:15:20.244Z,91.81
2023-03-02T05:16:22.033Z,91.56
2023-03-02T05:17:23.748Z,91.81
2023-03-02T05:18:25.435Z,92.21
2023-03-02T05:19:27.227Z,92.15
2023-03-02T05:20:28.922Z,91.96
2023-03-02T05:21:30.663Z,92.09
2023-03-02T05:22:32.399Z,92.31
2023-03-02T05:23:34.081Z,92.6
2023-03-02T05:24:35.906Z,92.49
2023-03-02T05:25:37.559Z,92.44
2023-03-02T05:26:39.277Z,92.45
2023-03-02T05:27:40.998Z,92.39
2023-03-02T05:28:42.735Z,92.99
2023-03-02T05:29:44.443Z,92.88
2023-03-02T05:30:46.154Z,92.87
2023-03-02T05:31:47.980Z,93.16
2023-03-02T05:32:49.649Z,93.12
2023-03-02T05:33:51.324Z,93.19
2023-03-02T05:34:53.106Z,93.59
2023-03-02T05:35:54.866Z,93.12
2023-03-02T05:36:56.536Z,93.19
2023-03-02T05:37:58.242Z,93.52
2023-03-02T05:38:59.946Z,93.36
2023-03-02T05:40:01.757Z,93.66
2023-03-02T05:41:03.490Z,93.51
2023-03-02T05:42:05.168Z,93.33
2023-03-02T05:43:06.899Z,93.33
2023-03-02T05:44:08.639Z,93.79
2023-03-02T05:45:10.344Z,93.42
2023-03-02T05:46:12.100Z,93.58
2023-03-02T05:47:13.900Z,93.4
2023-03-02T05:48:15.623Z,93.54
2023-03-02T05:49:17.292Z,93.61
2023-03-02T05:50:19.038Z,93.66
2023-03-02T05:51:20.780Z,93.53
2023-03-02T05:52:22.483Z,93.75
2023-03-02T05:53:24.208Z,93.55
2023-03-02T05:54:25.968Z,93.62
2023-03-02T05:55:27.687Z,94.05
2023-03-02T05:56:29.411Z,93.91
2023-03-02T05:57:31.114Z,93.73
2023-03-02T05:58:33.036Z,93.69
2023-03-02T05:59:34.568Z,94.15
2023-03-02T06:00:36.372Z,94.04
2023-03-02T06:01:38.128Z,93.79
2023-03-02T06:02:39.810Z,94.38
2023-03-02T06:03:41.527Z,94.25
2023-03-02T06:04:43.294Z,94.12
2023-03-02T06:05:44.988Z,94.44
2023-03-02T06:06:46.708Z,94.3
2023-03-02T06:07:48.524Z,94.31
2023-03-02T06:08:50.205Z,94.47
2023-03-02T06:09:51.937Z,94.22
2023-03-02T06:10:53.632Z,94.52
2023-03-02T06:11:55.372Z,94.56
2023-03-02T06:12:57.268Z,94.28
2023-03-02T06:13:58.841Z,94.08
2023-03-02T06:15:00.587Z,94.37
2023-03-02T06:16:02.538Z,94.45
2023-03-02T06:17:04.056Z,94.17
2023-03-02T06:18:05.766Z,94.1
2023-03-02T06:19:07.514Z,94.21
2023-03-02T06:20:09.294Z,94.62
2023-03-02T06:21:11.057Z,93.79
2023-03-02T06:22:12.701Z,93.94
2023-03-02T06:23:14.438Z,93.43
2023-03-02T06:24:16.295Z,93.57
2023-03-02T06:25:17.897Z,93.4
2023-03-02T06:26:19.676Z,93.86
2023-03-02T06:27:21.348Z,93.27
2023-03-02T06:28:27.646Z,93.38
2023-03-02T06:29:29.996Z,93.24
2023-03-02T06:30:31.721Z,93.33
2023-03-02T06:31:33.788Z,93.89
2023-03-02T06:32:35.560Z,93.62
2023-03-02T06:33:49.613Z,93.44
2023-03-02T06:34:51.138Z,93.77
2023-03-02T06:35:53.021Z,93.97
2023-03-02T06:36:54.597Z,93.85
2023-03-02T06:38:50.922Z,94.02
2023-03-02T06:39:53.361Z,94.08
2023-03-02T06:40:55.072Z,93.72
2023-03-02T06:41:56.818Z,94
2023-03-02T06:42:58.562Z,94.08
2023-03-02T06:44:00.221Z,93.67
2023-03-02T06:45:02.023Z,93.66
2023-03-02T06:46:04.854Z,93.92
2023-03-02T06:47:05.470Z,93.87
2023-03-02T06:48:07.204Z,93.95
2023-03-02T06:49:08.900Z,93.68
2023-03-02T06:50:15.122Z,94.19
2023-03-02T06:51:17.503Z,93.69
2023-03-02T06:52:22.875Z,93.87
2023-03-02T06:53:26.165Z,93.99
2023-03-02T06:54:27.920Z,93.82
2023-03-02T06:55:30.956Z,93.62
2023-03-02T06:56:34.301Z,93.69
2023-03-02T06:57:38.184Z,93.33
2023-03-02T06:58:39.913Z,93.32
2023-03-02T06:59:41.645Z,92.91
2023-03-02T07:00:43.384Z,93.06
2023-03-02T07:01:45.106Z,93.21
2023-03-02T07:02:51.350Z,93.27
2023-03-02T07:03:53.797Z,93.12
2023-03-02T07:04:56.675Z,93.24
2023-03-02T07:05:57.196Z,92.81
2023-03-02T07:06:58.962Z,92.93
2023-03-02T07:08:00.643Z,92.54
2023-03-02T07:09:03.596Z,93.3
2023-03-02T07:10:06.246Z,92.81
2023-03-02T07:11:11.074Z,92.37
2023-03-02T07:12:12.774Z,92.8
2023-03-02T07:13:14.500Z,92.72
2023-03-02T07:14:16.198Z,92.61
2023-03-02T07:15:17.914Z,92.73
2023-03-02T07:16:19.715Z,92.43
2023-03-02T07:17:21.582Z,92.28
2023-03-02T07:18:23.132Z,92.22
2023-03-02T07:19:24.863Z,92.19
2023-03-02T07:20:26.582Z,91.63
2023-03-02T07:21:28.305Z,91.78
2023-03-02T07:22:30.035Z,91.73
2023-03-02T07:23:31.798Z,91.56
2023-03-02T07:24:33.533Z,91.63
2023-03-02T07:25:35.247Z,91.49
2023-03-02T07:26:36.987Z,91.2
2023-03-02T07:27:38.705Z,90.99
2023-03-02T07:28:39.834Z,90.48
2023-03-02T07:29:43.491Z,90.35
2023-03-02T07:30:43.921Z,90.38
2023-03-02T07:31:45.621Z,90.09
2023-03-02T07:32:47.348Z,88.86
2023-03-02T07:33:49.088Z,88.78
2023-03-02T07:34:50.835Z,87.86
2023-03-02T07:35:52.605Z,87.62
2023-03-02T07:36:54.281Z,86.98
2023-03-02T07:37:56.019Z,85.9
2023-03-02T07:38:57.747Z,85.72
2023-03-02T07:40:00.821Z,85.88
2023-03-02T07:41:01.204Z,84.96
2023-03-02T07:42:02.965Z,84.03
2023-03-02T07:43:04.693Z,84.19
2023-03-02T07:44:06.433Z,84.82
2023-03-02T07:45:08.149Z,83.83
2023-03-02T07:46:09.931Z,83.13
2023-03-02T07:47:11.655Z,83.21
2023-03-02T07:48:53.498Z,82.66
2023-03-02T07:50:36.147Z,81.91
2023-03-02T07:52:01.517Z,80.72
2023-03-02T07:53:03.388Z,81.33
2023-03-02T07:54:09.509Z,81.05
2023-03-02T07:55:12.133Z,79.73
2023-03-02T07:56:13.732Z,79.12
2023-03-02T07:57:15.498Z,79.58
2023-03-02T07:58:17.243Z,78.01
2023-03-02T07:59:18.932Z,77.53
2023-03-02T08:00:25.068Z,77.49
2023-03-02T08:01:27.680Z,77.32
2023-03-02T08:02:29.854Z,76.48
2023-03-02T08:04:12.095Z,76.26
2023-03-02T08:05:13.835Z,75.36
2023-03-02T08:06:15.587Z,74.5
2023-03-02T08:07:17.377Z,74.78
2023-03-02T08:08:20.412Z,72.48
2023-03-02T08:09:36.326Z,71.54
2023-03-02T08:10:44.084Z,71.02
2023-03-02T08:11:55.583Z,69.73
2023-03-02T08:12:56.908Z,69.57
2023-03-02T08:13:58.677Z,67.95
2023-03-02T08:15:01.671Z,68.61
2023-03-02T08:16:02.168Z,68.34
2023-03-02T08:17:03.900Z,68.82
2023-03-02T08:18:04.042Z,67.72
2023-03-02T08:19:07.415Z,68.23
2023-03-02T08:20:10.441Z,66.43
2023-03-02T08:21:10.843Z,66.71
2023-03-02T08:22:12.565Z,66.4
2023-03-02T08:23:14.325Z,66.26
2023-03-02T08:24:15.993Z,65.63
2023-03-02T08:25:19.156Z,65.66
2023-03-02T08:26:20.614Z,65.86
2023-03-02T08:27:22.346Z,64.14
2023-03-02T08:28:22.943Z,64.66
2023-03-02T08:29:24.783Z,65.55
2023-03-02T08:30:26.365Z,65.4
2023-03-02T08:31:38.679Z,65.19
2023-03-02T08:32:50.480Z,64.43
2023-03-02T08:33:56.480Z,64.77
2023-03-02T08:35:03.372Z,63.44
2023-03-02T08:36:09.998Z,63.82
2023-03-02T08:37:12.027Z,63.11
2023-03-02T08:38:14.554Z,63.08
2023-03-02T08:39:17.611Z,63.35
2023-03-02T08:40:19.503Z,62.93
2023-03-02T08:41:19.636Z,63.36
2023-03-02T08:42:21.390Z,63.5
2023-03-02T08:43:23.167Z,62.13
2023-03-02T08:44:24.844Z,61.93
2023-03-02T08:45:26.660Z,62.47
2023-03-02T08:46:32.820Z,62.39
2023-03-02T08:47:36.665Z,63.14
2023-03-02T08:48:36.981Z,63.36
2023-03-02T08:49:38.700Z,63.96
2023-03-02T08:50:40.433Z,63.13
2023-03-02T08:51:42.199Z,63.31
2023-03-02T08:52:48.216Z,62.98
2023-03-02T08:53:52.082Z,63.3
2023-03-02T08:54:53.403Z,63.84
2023-03-02T08:55:54.309Z,63.85
2023-03-02T08:56:55.997Z,62.79
2023-03-02T08:57:57.709Z,62.57
2023-03-02T08:58:59.633Z,63.22
2023-03-02T09:00:01.229Z,63.18
2023-03-02T09:01:04.121Z,63.6
2023-03-02T09:02:06.049Z,63.81
2023-03-02T09:03:08.051Z,61.38
2023-03-02T09:04:08.238Z,62.17
2023-03-02T09:05:09.792Z,62.87
2023-03-02T09:06:11.532Z,62.41
2023-03-02T09:07:16.644Z,60.55
2023-03-02T09:08:16.473Z,61.04
2023-03-02T09:09:16.783Z,62.64
2023-03-02T09:10:18.540Z,61.16
2023-03-02T09:11:19.296Z,60.84
2023-03-02T09:12:22.080Z,60.16
2023-03-02T09:13:25.003Z,60.54
2023-03-02T09:14:25.485Z,61.75
2023-03-02T09:15:27.351Z,61.28
2023-03-02T09:16:29.083Z,59.63
2023-03-02T09:17:30.626Z,59.02
2023-03-02T09:18:32.394Z,58.95
2023-03-02T09:19:34.081Z,58.37
2023-03-02T09:20:35.813Z,57.67
2023-03-02T09:21:37.609Z,59.08
2023-03-02T09:22:40.377Z,58.56
2023-03-02T09:23:46.592Z,57.92
2023-03-02T09:24:49.094Z,57.86
2023-03-02T09:25:50.835Z,57.81
2023-03-02T09:26:59.482Z,56.3
2023-03-02T09:27:59.536Z,56.59
2023-03-02T09:29:01.274Z,57.31
2023-03-02T09:30:13.676Z,56.46
2023-03-02T09:31:14.944Z,56.85
2023-03-02T09:32:16.872Z,57.79
2023-03-02T09:33:21.358Z,57.78
2023-03-02T09:34:24.123Z,57.79
2023-03-02T09:35:45.420Z,56.87
2023-03-02T09:36:47.126Z,57.11
2023-03-02T09:37:48.134Z,57.79
2023-03-02T09:38:50.620Z,57.26
2023-03-02T09:39:53.699Z,57.93
2023-03-02T09:40:54.224Z,57.14
2023-03-02T09:41:55.805Z,57.23
2023-03-02T09:42:58.874Z,57.37
2023-03-02T09:44:01.781Z,56.35
2023-03-02T09:45:07.516Z,56.57
2023-03-02T09:46:08.898Z,56.81
2023-03-02T09:47:09.602Z,56.79
2023-03-02T09:48:11.289Z,57.09
2023-03-02T09:49:13.011Z,58.01
2023-03-02T09:50:14.825Z,56.4
2023-03-02T09:51:19.411Z,56.85
2023-03-02T09:52:24.641Z,56.56
2023-03-02T09:53:25.116Z,56.16
2023-03-02T09:54:26.825Z,55.58
2023-03-02T09:55:28.493Z,55.11
2023-03-02T09:56:30.477Z,54.29
2023-03-02T09:57:31.970Z,55.17
2023-03-02T09:58:47.879Z,56.72
2023-03-02T09:59:50.271Z,56.45
2023-03-02T10:00:50.734Z,56.42
2023-03-02T10:02:03.000Z,56.06
2023-03-02T10:03:16.230Z,56.77
2023-03-02T10:04:11.602Z,56.4
2023-03-02T10:05:14.606Z,55.6
2023-03-02T10:06:16.125Z,56.34
2023-03-02T10:07:16.666Z,56.57
2023-03-02T10:08:18.444Z,56.14
2023-03-02T10:09:23.025Z,57.03
2023-03-02T10:10:27.134Z,57.9
2023-03-02T10:11:43.283Z,59.24
2023-03-02T10:12:46.027Z,57.83
2023-03-02T10:14:09.580Z,55.84
2023-03-02T10:15:10.130Z,55.24
2023-03-02T10:16:12.926Z,56.05
2023-03-02T10:17:19.824Z,54.87
2023-03-02T10:18:20.545Z,54.55
2023-03-02T10:19:22.221Z,54.36
2023-03-02T10:20:26.131Z,55.69
2023-03-02T10:21:32.024Z,56.08
2023-03-02T10:22:33.804Z,56.42
2023-03-02T10:23:38.578Z,55.4
2023-03-02T10:24:42.322Z,56.34
2023-03-02T10:26:58.816Z,56.93
2023-03-02T10:28:05.665Z,56.23
2023-03-02T10:29:07.407Z,56.32
2023-03-02T10:30:19.778Z,55.59
2023-03-02T10:31:21.230Z,56.08
2023-03-02T10:32:24.289Z,55.67
2023-03-02T10:33:29.328Z,56.99
2023-03-02T10:34:31.545Z,56.47
2023-03-02T10:35:40.165Z,56.28
2023-03-02T10:36:45.623Z,55.81
2023-03-02T10:37:49.155Z,56
2023-03-02T10:38:49.661Z,56.24
2023-03-02T10:39:51.380Z,54.85
2023-03-02T10:40:53.166Z,55.55
2023-03-02T10:41:54.850Z,55.67
2023-03-02T10:42:57.628Z,55.35
2023-03-02T10:43:58.290Z,55.69
2023-03-02T10:45:00.004Z,54.59
2023-03-02T10:46:02.960Z,55.74
2023-03-02T10:47:03.476Z,55.79
2023-03-02T10:48:06.565Z,56.07
2023-03-02T10:49:06.966Z,56.49
2023-03-02T10:50:11.303Z,55.45
2023-03-02T10:51:11.681Z,55.67
2023-03-02T10:52:13.288Z,55.76
2023-03-02T10:53:16.514Z,54.78
2023-03-02T10:54:52.238Z,55
2023-03-02T10:56:48.905Z,55.39
2023-03-02T10:57:53.493Z,54.86
2023-03-02T10:59:08.421Z,54.03
2023-03-02T11:00:28.452Z,54.44
2023-03-02T11:01:31.138Z,55.35
2023-03-02T11:02:32.753Z,54.85
2023-03-02T11:03:34.586Z,53.8
2023-03-02T11:04:37.468Z,54.68
2023-03-02T11:05:42.089Z,53.28
2023-03-02T11:07:40.281Z,52.8
2023-03-02T11:08:45.636Z,53.72
2023-03-02T11:09:46.393Z,52.82
2023-03-02T11:10:52.386Z,53.41
2023-03-02T11:11:53.153Z,53.82
2023-03-02T11:12:54.853Z,52.96
2023-03-02T11:13:56.499Z,53.56
2023-03-02T11:15:01.280Z,52.22
2023-03-02T11:16:05.383Z,52.03
2023-03-02T11:17:08.003Z,53.28
2023-03-02T11:18:08.558Z,53.12
2023-03-02T11:19:11.754Z,54.79
2023-03-02T11:20:13.162Z,53.31
2023-03-02T11:21:14.841Z,53.71
2023-03-02T11:22:15.497Z,53.82
2023-03-02T11:23:22.069Z,51.91
2023-03-02T11:24:24.087Z,53.1
2023-03-02T11:25:29.944Z,53.07
2023-03-02T11:26:34.000Z,53.02
2023-03-02T11:27:34.477Z,53.41
2023-03-02T11:28:35.266Z,52.78
2023-03-02T11:29:37.944Z,52.57
2023-03-02T11:30:42.162Z,52.86
2023-03-02T11:31:46.638Z,52.17
2023-03-02T11:32:48.394Z,52.34
2023-03-02T11:33:50.028Z,52.99
2023-03-02T11:34:56.204Z,53.84
2023-03-02T11:36:02.779Z,54.98
2023-03-02T11:37:11.263Z,54.28
2023-03-02T11:38:19.210Z,54.16
2023-03-02T11:39:19.255Z,53.35
2023-03-02T11:40:20.963Z,54.24
2023-03-02T11:41:22.688Z,53.51
2023-03-02T11:42:25.734Z,53.11
2023-03-02T11:43:27.627Z,52.69
2023-03-02T11:44:28.000Z,53.43
2023-03-02T11:45:40.371Z,53.12
2023-03-02T11:46:41.754Z,53.53
2023-03-02T11:47:51.669Z,53.44
2023-03-02T11:48:50.294Z,53.33
2023-03-02T11:49:52.075Z,54.43
2023-03-02T11:50:56.660Z,55.42
2023-03-02T11:52:00.639Z,56.45
2023-03-02T11:53:02.374Z,55.73
2023-03-02T11:54:04.050Z,54.34
2023-03-02T11:55:05.790Z,55.14
2023-03-02T11:56:07.489Z,56.61
2023-03-02T11:57:09.260Z,56.37
2023-03-02T11:58:10.958Z,54.84
2023-03-02T11:59:12.682Z,54.4
2023-03-02T12:00:14.518Z,56.27
2023-03-02T12:01:16.171Z,56.49
2023-03-02T12:02:18.004Z,55.15
2023-03-02T12:03:19.621Z,54.16
2023-03-02T12:04:21.318Z,56.2
2023-03-02T12:05:23.194Z,54.4
2023-03-02T12:06:24.742Z,55.92
2023-03-02T12:07:26.484Z,54.67
2023-03-02T12:08:28.278Z,54.79
2023-03-02T12:09:29.991Z,54.7
2023-03-02T12:10:31.703Z,57.1
2023-03-02T12:11:33.462Z,54.31
2023-03-02T12:12:35.158Z,55.36
2023-03-02T12:13:36.961Z,54.21
2023-03-02T12:14:38.647Z,56.5
2023-03-02T12:15:40.387Z,55.98
2023-03-02T12:16:42.254Z,54.47
2023-03-02T12:17:43.859Z,53.81
2023-03-02T12:18:45.558Z,53.38
2023-03-02T12:19:47.308Z,54.54
2023-03-02T12:20:49.048Z,53.56
2023-03-02T12:21:50.775Z,53.53
2023-03-02T12:22:52.530Z,53.5
2023-03-02T12:23:54.231Z,53.63
2023-03-02T12:24:55.967Z,54.39
2023-03-02T12:25:57.702Z,54.9
2023-03-02T12:26:59.421Z,53.59
2023-03-02T12:28:27.101Z,54.74
2023-03-02T12:29:36.380Z,52.95
2023-03-02T12:30:38.806Z,53.87
2023-03-02T12:31:41.874Z,54.3
2023-03-02T12:32:44.390Z,53.48
2023-03-02T12:33:49.116Z,54.17
2023-03-02T12:34:50.881Z,55.73
2023-03-02T12:35:52.653Z,54.79
2023-03-02T12:39:03.234Z,55.2
2023-03-02T12:40:13.908Z,55.83
2023-03-02T12:41:23.544Z,55.13
2023-03-02T12:42:25.308Z,54.91
2023-03-02T12:43:27.081Z,55.09
2023-03-02T12:44:28.765Z,55.17
2023-03-02T12:45:30.580Z,56.16
2023-03-02T12:46:32.674Z,54.6
2023-03-02T12:47:34.068Z,54.75
2023-03-02T12:48:35.684Z,55.66
2023-03-02T12:49:37.415Z,54.56
2023-03-02T12:50:39.151Z,55.24
2023-03-02T12:51:41.032Z,56
2023-03-02T12:52:42.707Z,55.33
2023-03-02T12:53:44.365Z,55.2
2023-03-02T12:54:46.100Z,55.42
2023-03-02T12:55:47.879Z,54.62
2023-03-02T12:56:49.555Z,56.47
2023-03-02T12:57:51.508Z,55.54
2023-03-02T12:58:53.008Z,55.31
2023-03-02T12:59:54.763Z,55.66
2023-03-02T13:00:56.671Z,54.81
2023-03-02T13:01:58.288Z,55.91
2023-03-02T13:03:00.096Z,54.51
2023-03-02T13:04:01.814Z,53.38
2023-03-02T13:05:03.465Z,54.47
2023-03-02T13:06:05.549Z,54.25
2023-03-02T13:07:06.899Z,55.66
2023-03-02T13:08:08.643Z,55.1
2023-03-02T13:09:10.406Z,54.73
2023-03-02T13:10:12.113Z,55.64
2023-03-02T13:11:13.834Z,54.29
2023-03-02T13:12:15.552Z,55.09
2023-03-02T13:13:17.392Z,55.14
2023-03-02T13:14:19.023Z,56.11
2023-03-02T13:15:20.969Z,55.47
2023-03-02T13:16:22.629Z,54.14
2023-03-02T13:17:24.228Z,54.79
2023-03-02T13:18:25.936Z,54.2
2023-03-02T13:19:27.714Z,54.42
2023-03-02T13:20:29.392Z,53.89
2023-03-02T13:21:31.236Z,54.44
2023-03-02T13:22:32.985Z,53.84
2023-03-02T13:23:34.615Z,54.05
2023-03-02T13:24:36.326Z,55
2023-03-02T13:25:38.076Z,53.97
2023-03-02T13:26:39.796Z,53.97
2023-03-02T13:27:41.667Z,54.36
2023-03-02T13:28:43.306Z,55.43
2023-03-02T13:29:44.998Z,55.47
2023-03-02T13:30:46.916Z,54.72
2023-03-02T13:31:48.513Z,54.39
2023-03-02T13:32:50.225Z,53.06
2023-03-02T13:33:51.931Z,53.37
2023-03-02T13:34:53.673Z,53.76
2023-03-02T13:35:55.411Z,53.38
2023-03-02T13:36:57.141Z,53.95
2023-03-02T13:37:58.931Z,55.29
2023-03-02T13:39:00.641Z,54.62